sensor_id;sensor_type;location;lat;lon;timestamp;temperature;humidity
30234;DHT22;17046;52.074;4.748;2022-09-09T00:03:44;15.50;99.90
30234;DHT22;17046;52.074;4.748;2022-09-09T00:06:21;15.50;99.90
30234;DHT22;17046;52.074;4.748;2022-09-09T00:09:06;15.40;99.90
30234;DHT22;17046;52.074;4.748;2022-09-09T00:11:46;15.40;99.90
30234;DHT22;17046;52.074;4.748;2022-09-09T00:14:25;15.40;99.90
30234;DHT22;17046;52.074;4.748;2022-09-09T00:16:56;15.40;99.90
30234;DHT22;17046;52.074;4.748;2022-09-09T00:19:46;15.30;99.90
30234;DHT22;17046;52.074;4.748;2022-09-09T00:22:18;15.30;99.90
30234;DHT22;17046;52.074;4.748;2022-09-09T00:24:46;15.30;99.90
30234;DHT22;17046;52.074;4.748;2022-09-09T00:29:52;15.30;99.90
30234;DHT22;17046;52.074;4.748;2022-09-09T00:32:20;15.30;99.90
30234;DHT22;17046;52.074;4.748;2022-09-09T00:35:25;15.20;99.90
30234;DHT22;17046;52.074;4.748;2022-09-09T00:37:55;15.20;99.90
30234;DHT22;17046;52.074;4.748;2022-09-09T00:40:27;15.20;99.90
30234;DHT22;17046;52.074;4.748;2022-09-09T00:46:16;15.10;99.90
30234;DHT22;17046;52.074;4.748;2022-09-09T00:49:09;15.10;99.90
30234;DHT22;17046;52.074;4.748;2022-09-09T01:02:27;15.00;99.90
30234;DHT22;17046;52.074;4.748;2022-09-09T01:05:10;15.00;99.90
30234;DHT22;17046;52.074;4.748;2022-09-09T01:07:37;15.00;99.90
30234;DHT22;17046;52.074;4.748;2022-09-09T01:10:08;15.00;99.90
30234;DHT22;17046;52.074;4.748;2022-09-09T01:12:42;14.90;99.90
30234;DHT22;17046;52.074;4.748;2022-09-09T01:15:14;14.90;99.90
30234;DHT22;17046;52.074;4.748;2022-09-09T01:28:30;14.90;99.90
30234;DHT22;17046;52.074;4.748;2022-09-09T01:30:57;14.90;99.90
30234;DHT22;17046;52.074;4.748;2022-09-09T01:33:24;14.80;99.90
30234;DHT22;17046;52.074;4.748;2022-09-09T01:35:57;14.80;99.90
30234;DHT22;17046;52.074;4.748;2022-09-09T01:38:26;14.70;99.90
30234;DHT22;17046;52.074;4.748;2022-09-09T01:40:52;14.70;99.90
30234;DHT22;17046;52.074;4.748;2022-09-09T01:43:20;14.70;99.90
30234;DHT22;17046;52.074;4.748;2022-09-09T01:45:46;14.70;99.90
30234;DHT22;17046;52.074;4.748;2022-09-09T01:48:15;14.70;99.90
30234;DHT22;17046;52.074;4.748;2022-09-09T01:50:41;14.70;99.90
30234;DHT22;17046;52.074;4.748;2022-09-09T01:53:07;14.70;99.90
30234;DHT22;17046;52.074;4.748;2022-09-09T01:55:40;14.60;99.90
30234;DHT22;17046;52.074;4.748;2022-09-09T02:03:32;14.60;99.90
30234;DHT22;17046;52.074;4.748;2022-09-09T02:06:41;14.50;99.90
30234;DHT22;17046;52.074;4.748;2022-09-09T02:09:07;14.50;99.90
30234;DHT22;17046;52.074;4.748;2022-09-09T02:11:35;14.50;99.90
30234;DHT22;17046;52.074;4.748;2022-09-09T02:14:23;14.50;99.90
30234;DHT22;17046;52.074;4.748;2022-09-09T02:16:57;14.50;99.90
30234;DHT22;17046;52.074;4.748;2022-09-09T02:19:49;14.50;99.90
30234;DHT22;17046;52.074;4.748;2022-09-09T02:22:19;14.50;99.90
30234;DHT22;17046;52.074;4.748;2022-09-09T02:24:47;14.50;99.90
30234;DHT22;17046;52.074;4.748;2022-09-09T02:27:13;14.60;99.90
30234;DHT22;17046;52.074;4.748;2022-09-09T02:29:42;14.50;99.90
30234;DHT22;17046;52.074;4.748;2022-09-09T02:32:16;14.50;99.90
30234;DHT22;17046;52.074;4.748;2022-09-09T02:34:47;14.50;99.90
30234;DHT22;17046;52.074;4.748;2022-09-09T02:37:16;14.50;99.90
30234;DHT22;17046;52.074;4.748;2022-09-09T02:39:43;14.50;99.90
30234;DHT22;17046;52.074;4.748;2022-09-09T02:42:08;14.50;99.90
30234;DHT22;17046;52.074;4.748;2022-09-09T02:44:35;14.40;99.90
30234;DHT22;17046;52.074;4.748;2022-09-09T02:52:26;14.20;99.90
30234;DHT22;17046;52.074;4.748;2022-09-09T02:54:59;14.20;99.90
30234;DHT22;17046;52.074;4.748;2022-09-09T02:57:28;14.10;99.90
30234;DHT22;17046;52.074;4.748;2022-09-09T02:59:58;14.10;99.90
30234;DHT22;17046;52.074;4.748;2022-09-09T03:02:24;14.10;99.90
30234;DHT22;17046;52.074;4.748;2022-09-09T03:04:50;14.00;99.90
30234;DHT22;17046;52.074;4.748;2022-09-09T03:07:18;14.00;99.90
30234;DHT22;17046;52.074;4.748;2022-09-09T03:09:43;14.00;99.90
30234;DHT22;17046;52.074;4.748;2022-09-09T03:12:10;13.90;99.90
30234;DHT22;17046;52.074;4.748;2022-09-09T03:14:36;13.90;99.90
30234;DHT22;17046;52.074;4.748;2022-09-09T03:17:04;13.90;99.90
30234;DHT22;17046;52.074;4.748;2022-09-09T03:19:30;13.90;99.90
30234;DHT22;17046;52.074;4.748;2022-09-09T03:21:57;13.80;99.90
30234;DHT22;17046;52.074;4.748;2022-09-09T03:24:23;13.80;99.90
30234;DHT22;17046;52.074;4.748;2022-09-09T03:26:49;13.80;99.90
30234;DHT22;17046;52.074;4.748;2022-09-09T03:29:15;13.70;99.90
30234;DHT22;17046;52.074;4.748;2022-09-09T03:31:42;13.70;99.90
30234;DHT22;17046;52.074;4.748;2022-09-09T03:34:08;13.70;99.90
30234;DHT22;17046;52.074;4.748;2022-09-09T03:36:34;13.60;99.90
30234;DHT22;17046;52.074;4.748;2022-09-09T03:38:59;13.60;99.90
30234;DHT22;17046;52.074;4.748;2022-09-09T03:41:25;13.50;99.90
30234;DHT22;17046;52.074;4.748;2022-09-09T03:43:52;13.50;99.90
30234;DHT22;17046;52.074;4.748;2022-09-09T03:46:22;13.50;99.90
30234;DHT22;17046;52.074;4.748;2022-09-09T03:48:47;13.50;99.90
30234;DHT22;17046;52.074;4.748;2022-09-09T03:51:13;13.40;99.90
30234;DHT22;17046;52.074;4.748;2022-09-09T03:53:41;13.40;99.90
30234;DHT22;17046;52.074;4.748;2022-09-09T03:56:06;13.40;99.90
30234;DHT22;17046;52.074;4.748;2022-09-09T03:58:34;13.40;99.90
30234;DHT22;17046;52.074;4.748;2022-09-09T04:01:08;13.40;99.90
30234;DHT22;17046;52.074;4.748;2022-09-09T04:03:34;13.30;99.90
30234;DHT22;17046;52.074;4.748;2022-09-09T04:06:01;13.30;99.90
30234;DHT22;17046;52.074;4.748;2022-09-09T04:08:28;13.30;99.90
30234;DHT22;17046;52.074;4.748;2022-09-09T04:10:56;13.30;99.90
30234;DHT22;17046;52.074;4.748;2022-09-09T04:13:23;13.30;99.90
30234;DHT22;17046;52.074;4.748;2022-09-09T04:15:57;13.20;99.90
30234;DHT22;17046;52.074;4.748;2022-09-09T04:18:24;13.20;99.90
30234;DHT22;17046;52.074;4.748;2022-09-09T04:20:50;13.20;99.90
30234;DHT22;17046;52.074;4.748;2022-09-09T04:23:17;13.20;99.90
30234;DHT22;17046;52.074;4.748;2022-09-09T04:25:52;13.20;99.90
30234;DHT22;17046;52.074;4.748;2022-09-09T04:28:20;13.20;99.90
30234;DHT22;17046;52.074;4.748;2022-09-09T04:30:46;13.10;99.90
30234;DHT22;17046;52.074;4.748;2022-09-09T04:33:13;13.20;99.90
30234;DHT22;17046;52.074;4.748;2022-09-09T04:35:44;13.10;99.90
30234;DHT22;17046;52.074;4.748;2022-09-09T04:38:10;13.10;99.90
30234;DHT22;17046;52.074;4.748;2022-09-09T04:40:36;13.10;99.90
30234;DHT22;17046;52.074;4.748;2022-09-09T04:43:03;13.10;99.90
30234;DHT22;17046;52.074;4.748;2022-09-09T04:45:30;13.10;99.90
30234;DHT22;17046;52.074;4.748;2022-09-09T04:47:56;13.20;99.90
30234;DHT22;17046;52.074;4.748;2022-09-09T04:50:22;13.20;99.90
30234;DHT22;17046;52.074;4.748;2022-09-09T04:52:48;13.10;99.90
30234;DHT22;17046;52.074;4.748;2022-09-09T04:55:14;13.10;99.90
30234;DHT22;17046;52.074;4.748;2022-09-09T04:57:40;13.10;99.90
30234;DHT22;17046;52.074;4.748;2022-09-09T05:00:06;13.10;99.90
30234;DHT22;17046;52.074;4.748;2022-09-09T05:02:32;13.10;99.90
30234;DHT22;17046;52.074;4.748;2022-09-09T05:04:58;13.10;99.90
30234;DHT22;17046;52.074;4.748;2022-09-09T05:07:24;13.10;99.90
30234;DHT22;17046;52.074;4.748;2022-09-09T05:09:51;13.10;99.90
30234;DHT22;17046;52.074;4.748;2022-09-09T05:12:17;13.10;99.90
30234;DHT22;17046;52.074;4.748;2022-09-09T05:14:43;13.10;99.90
30234;DHT22;17046;52.074;4.748;2022-09-09T05:17:09;13.10;99.90
30234;DHT22;17046;52.074;4.748;2022-09-09T05:19:35;13.10;99.90
30234;DHT22;17046;52.074;4.748;2022-09-09T05:22:00;13.20;99.90
30234;DHT22;17046;52.074;4.748;2022-09-09T05:24:26;13.20;99.90
30234;DHT22;17046;52.074;4.748;2022-09-09T05:26:52;13.20;99.90
30234;DHT22;17046;52.074;4.748;2022-09-09T05:29:17;13.30;99.90
30234;DHT22;17046;52.074;4.748;2022-09-09T05:31:47;13.30;99.90
30234;DHT22;17046;52.074;4.748;2022-09-09T05:34:13;13.30;99.90
30234;DHT22;17046;52.074;4.748;2022-09-09T05:36:38;13.40;99.90
30234;DHT22;17046;52.074;4.748;2022-09-09T05:39:04;13.40;99.90
30234;DHT22;17046;52.074;4.748;2022-09-09T05:41:30;13.50;99.90
30234;DHT22;17046;52.074;4.748;2022-09-09T05:43:57;13.50;99.90
30234;DHT22;17046;52.074;4.748;2022-09-09T05:46:25;13.60;99.90
30234;DHT22;17046;52.074;4.748;2022-09-09T05:48:51;13.60;99.90
30234;DHT22;17046;52.074;4.748;2022-09-09T05:51:22;13.70;99.90
30234;DHT22;17046;52.074;4.748;2022-09-09T05:53:49;13.80;99.90
30234;DHT22;17046;52.074;4.748;2022-09-09T05:56:21;13.90;99.90
30234;DHT22;17046;52.074;4.748;2022-09-09T05:58:48;14.00;99.90
30234;DHT22;17046;52.074;4.748;2022-09-09T06:01:16;14.20;99.90
30234;DHT22;17046;52.074;4.748;2022-09-09T06:03:43;14.40;99.90
30234;DHT22;17046;52.074;4.748;2022-09-09T06:06:12;14.60;99.90
30234;DHT22;17046;52.074;4.748;2022-09-09T06:08:39;14.80;99.90
30234;DHT22;17046;52.074;4.748;2022-09-09T06:11:11;15.00;99.90
30234;DHT22;17046;52.074;4.748;2022-09-09T06:13:38;15.10;99.90
30234;DHT22;17046;52.074;4.748;2022-09-09T06:16:05;15.20;99.90
30234;DHT22;17046;52.074;4.748;2022-09-09T06:18:32;15.30;99.90
30234;DHT22;17046;52.074;4.748;2022-09-09T06:21:06;15.50;99.90
30234;DHT22;17046;52.074;4.748;2022-09-09T06:23:33;15.50;99.90
30234;DHT22;17046;52.074;4.748;2022-09-09T06:26:20;15.60;99.90
30234;DHT22;17046;52.074;4.748;2022-09-09T06:28:47;15.90;99.90
30234;DHT22;17046;52.074;4.748;2022-09-09T06:31:15;16.00;99.90
30234;DHT22;17046;52.074;4.748;2022-09-09T06:33:43;16.10;99.90
30234;DHT22;17046;52.074;4.748;2022-09-09T06:36:20;16.10;99.90
30234;DHT22;17046;52.074;4.748;2022-09-09T06:38:47;16.10;99.90
30234;DHT22;17046;52.074;4.748;2022-09-09T06:41:14;16.20;99.90
30234;DHT22;17046;52.074;4.748;2022-09-09T06:43:40;16.20;99.90
30234;DHT22;17046;52.074;4.748;2022-09-09T06:46:11;16.10;99.90
30234;DHT22;17046;52.074;4.748;2022-09-09T06:48:39;16.20;99.90
30234;DHT22;17046;52.074;4.748;2022-09-09T06:51:09;16.20;99.90
30234;DHT22;17046;52.074;4.748;2022-09-09T06:53:38;16.30;99.90
30234;DHT22;17046;52.074;4.748;2022-09-09T06:58:39;16.30;99.90
30234;DHT22;17046;52.074;4.748;2022-09-09T07:01:08;16.40;99.90
30234;DHT22;17046;52.074;4.748;2022-09-09T07:03:35;16.30;99.90
30234;DHT22;17046;52.074;4.748;2022-09-09T07:06:01;16.30;99.90
30234;DHT22;17046;52.074;4.748;2022-09-09T07:08:26;16.30;99.90
30234;DHT22;17046;52.074;4.748;2022-09-09T07:10:53;16.40;99.90
30234;DHT22;17046;52.074;4.748;2022-09-09T07:13:26;16.40;99.90
30234;DHT22;17046;52.074;4.748;2022-09-09T07:15:52;16.50;99.90
30234;DHT22;17046;52.074;4.748;2022-09-09T07:18:18;16.50;99.90
30234;DHT22;17046;52.074;4.748;2022-09-09T07:20:53;16.50;99.90
30234;DHT22;17046;52.074;4.748;2022-09-09T07:23:20;16.50;99.90
30234;DHT22;17046;52.074;4.748;2022-09-09T07:25:46;16.50;99.90
30234;DHT22;17046;52.074;4.748;2022-09-09T07:28:11;16.60;99.90
30234;DHT22;17046;52.074;4.748;2022-09-09T07:30:37;16.70;99.90
30234;DHT22;17046;52.074;4.748;2022-09-09T07:33:02;16.80;99.90
30234;DHT22;17046;52.074;4.748;2022-09-09T07:35:28;17.00;99.40
30234;DHT22;17046;52.074;4.748;2022-09-09T07:37:54;17.10;97.00
30234;DHT22;17046;52.074;4.748;2022-09-09T07:40:20;17.20;91.70
30234;DHT22;17046;52.074;4.748;2022-09-09T07:42:47;17.40;85.60
30234;DHT22;17046;52.074;4.748;2022-09-09T07:45:13;17.50;77.60
30234;DHT22;17046;52.074;4.748;2022-09-09T07:47:39;17.70;52.50
30234;DHT22;17046;52.074;4.748;2022-09-09T07:50:08;17.70;34.00
30234;DHT22;17046;52.074;4.748;2022-09-09T07:52:34;17.40;59.20
30234;DHT22;17046;52.074;4.748;2022-09-09T07:55:00;17.50;48.50
30234;DHT22;17046;52.074;4.748;2022-09-09T07:57:28;17.60;39.60
30234;DHT22;17046;52.074;4.748;2022-09-09T07:59:55;17.50;41.10
30234;DHT22;17046;52.074;4.748;2022-09-09T08:02:22;17.50;42.20
30234;DHT22;17046;52.074;4.748;2022-09-09T08:04:48;17.30;47.30
30234;DHT22;17046;52.074;4.748;2022-09-09T08:07:14;17.20;57.60
30234;DHT22;17046;52.074;4.748;2022-09-09T08:09:39;17.10;60.30
30234;DHT22;17046;52.074;4.748;2022-09-09T08:12:05;17.20;60.00
30234;DHT22;17046;52.074;4.748;2022-09-09T08:14:32;17.10;65.70
30234;DHT22;17046;52.074;4.748;2022-09-09T08:16:57;17.00;83.90
30234;DHT22;17046;52.074;4.748;2022-09-09T08:19:23;17.10;78.20
30234;DHT22;17046;52.074;4.748;2022-09-09T08:21:49;17.10;73.10
30234;DHT22;17046;52.074;4.748;2022-09-09T08:24:15;17.00;70.30
30234;DHT22;17046;52.074;4.748;2022-09-09T08:26:43;16.90;75.30
30234;DHT22;17046;52.074;4.748;2022-09-09T08:29:10;16.80;81.20
30234;DHT22;17046;52.074;4.748;2022-09-09T08:31:38;16.90;89.00
30234;DHT22;17046;52.074;4.748;2022-09-09T08:34:05;16.90;88.00
30234;DHT22;17046;52.074;4.748;2022-09-09T08:36:34;16.90;84.10
30234;DHT22;17046;52.074;4.748;2022-09-09T08:39:01;16.90;75.80
30234;DHT22;17046;52.074;4.748;2022-09-09T08:44:49;17.10;69.00
30234;DHT22;17046;52.074;4.748;2022-09-09T08:50:28;17.30;55.10
30234;DHT22;17046;52.074;4.748;2022-09-09T08:53:02;17.20;53.30
30234;DHT22;17046;52.074;4.748;2022-09-09T08:58:16;17.20;56.80
30234;DHT22;17046;52.074;4.748;2022-09-09T09:03:51;17.30;59.40
30234;DHT22;17046;52.074;4.748;2022-09-09T09:09:18;17.40;46.50
30234;DHT22;17046;52.074;4.748;2022-09-09T09:11:55;17.30;60.20
30234;DHT22;17046;52.074;4.748;2022-09-09T09:14:25;17.30;62.50
30234;DHT22;17046;52.074;4.748;2022-09-09T09:17:00;17.30;66.90
30234;DHT22;17046;52.074;4.748;2022-09-09T09:19:27;17.10;94.70
30234;DHT22;17046;52.074;4.748;2022-09-09T09:22:04;17.00;99.90
30234;DHT22;17046;52.074;4.748;2022-09-09T09:27:36;16.60;99.90
30234;DHT22;17046;52.074;4.748;2022-09-09T09:30:06;16.60;99.90
30234;DHT22;17046;52.074;4.748;2022-09-09T09:32:39;16.60;99.90
30234;DHT22;17046;52.074;4.748;2022-09-09T09:35:12;16.60;99.90
30234;DHT22;17046;52.074;4.748;2022-09-09T09:37:40;16.60;99.90
30234;DHT22;17046;52.074;4.748;2022-09-09T09:40:14;16.60;99.90
30234;DHT22;17046;52.074;4.748;2022-09-09T09:42:57;16.70;99.90
30234;DHT22;17046;52.074;4.748;2022-09-09T09:45:31;16.90;99.90
30234;DHT22;17046;52.074;4.748;2022-09-09T09:48:00;17.10;99.90
30234;DHT22;17046;52.074;4.748;2022-09-09T09:50:27;17.00;99.90
30234;DHT22;17046;52.074;4.748;2022-09-09T09:52:58;16.90;99.90
30234;DHT22;17046;52.074;4.748;2022-09-09T09:55:24;16.80;99.90
30234;DHT22;17046;52.074;4.748;2022-09-09T09:57:51;16.80;99.90
30234;DHT22;17046;52.074;4.748;2022-09-09T10:00:18;16.70;99.90
30234;DHT22;17046;52.074;4.748;2022-09-09T10:02:45;16.70;99.90
30234;DHT22;17046;52.074;4.748;2022-09-09T10:05:30;16.90;99.90
30234;DHT22;17046;52.074;4.748;2022-09-09T10:08:11;17.00;99.90
30234;DHT22;17046;52.074;4.748;2022-09-09T10:19:32;18.30;90.10
30234;DHT22;17046;52.074;4.748;2022-09-09T10:22:28;18.80;34.50
30234;DHT22;17046;52.074;4.748;2022-09-09T10:25:30;19.00;4.80
30234;DHT22;17046;52.074;4.748;2022-09-09T10:28:23;18.80;1.00
30234;DHT22;17046;52.074;4.748;2022-09-09T10:33:51;19.10;1.00
30234;DHT22;17046;52.074;4.748;2022-09-09T10:39:03;18.60;10.30
30234;DHT22;17046;52.074;4.748;2022-09-09T10:42:09;18.50;13.10
30234;DHT22;17046;52.074;4.748;2022-09-09T10:52:24;18.50;6.50
30234;DHT22;17046;52.074;4.748;2022-09-09T10:55:18;18.70;9.80
30234;DHT22;17046;52.074;4.748;2022-09-09T10:57:50;19.10;1.00
30234;DHT22;17046;52.074;4.748;2022-09-09T11:00:21;19.10;1.00
30234;DHT22;17046;52.074;4.748;2022-09-09T11:02:58;18.60;1.00
30234;DHT22;17046;52.074;4.748;2022-09-09T11:05:46;18.60;7.90
30234;DHT22;17046;52.074;4.748;2022-09-09T11:08:20;18.60;15.10
30234;DHT22;17046;52.074;4.748;2022-09-09T11:16:49;18.30;9.80
30234;DHT22;17046;52.074;4.748;2022-09-09T11:19:34;18.20;35.90
30234;DHT22;17046;52.074;4.748;2022-09-09T11:22:04;18.20;58.40
30234;DHT22;17046;52.074;4.748;2022-09-09T11:24:46;18.40;39.60
30234;DHT22;17046;52.074;4.748;2022-09-09T11:30:42;18.90;1.00
30234;DHT22;17046;52.074;4.748;2022-09-09T11:33:41;18.90;1.00
30234;DHT22;17046;52.074;4.748;2022-09-09T11:42:06;19.60;1.00
30234;DHT22;17046;52.074;4.748;2022-09-09T11:44:32;20.00;1.00
30234;DHT22;17046;52.074;4.748;2022-09-09T11:46:58;19.60;1.00
30234;DHT22;17046;52.074;4.748;2022-09-09T11:52:24;19.40;1.00
30234;DHT22;17046;52.074;4.748;2022-09-09T11:54:54;19.60;1.00
30234;DHT22;17046;52.074;4.748;2022-09-09T11:59:51;19.90;1.00
30234;DHT22;17046;52.074;4.748;2022-09-09T12:02:25;20.00;1.00
30234;DHT22;17046;52.074;4.748;2022-09-09T12:05:02;19.80;1.00
30234;DHT22;17046;52.074;4.748;2022-09-09T12:07:37;19.60;1.00
30234;DHT22;17046;52.074;4.748;2022-09-09T12:10:05;19.40;1.00
30234;DHT22;17046;52.074;4.748;2022-09-09T12:12:44;19.00;4.60
30234;DHT22;17046;52.074;4.748;2022-09-09T12:17:44;17.90;99.90
30234;DHT22;17046;52.074;4.748;2022-09-09T12:28:18;17.30;99.90
30234;DHT22;17046;52.074;4.748;2022-09-09T12:33:37;17.20;99.90
30234;DHT22;17046;52.074;4.748;2022-09-09T12:36:13;17.10;99.90
30234;DHT22;17046;52.074;4.748;2022-09-09T12:38:41;17.00;99.90
30234;DHT22;17046;52.074;4.748;2022-09-09T12:41:19;16.90;99.90
30234;DHT22;17046;52.074;4.748;2022-09-09T12:43:45;16.80;99.90
30234;DHT22;17046;52.074;4.748;2022-09-09T12:46:23;16.80;99.90
30234;DHT22;17046;52.074;4.748;2022-09-09T12:48:51;16.70;99.90
30234;DHT22;17046;52.074;4.748;2022-09-09T12:51:24;16.70;99.90
30234;DHT22;17046;52.074;4.748;2022-09-09T12:53:51;16.60;99.90
30234;DHT22;17046;52.074;4.748;2022-09-09T12:56:22;16.50;99.90
30234;DHT22;17046;52.074;4.748;2022-09-09T12:58:50;16.50;99.90
30234;DHT22;17046;52.074;4.748;2022-09-09T13:01:28;16.50;99.90
30234;DHT22;17046;52.074;4.748;2022-09-09T13:03:55;16.50;99.90
30234;DHT22;17046;52.074;4.748;2022-09-09T13:06:29;16.50;99.90
30234;DHT22;17046;52.074;4.748;2022-09-09T13:08:57;16.60;99.90
30234;DHT22;17046;52.074;4.748;2022-09-09T13:13:56;16.70;99.90
30234;DHT22;17046;52.074;4.748;2022-09-09T13:16:28;16.80;99.90
30234;DHT22;17046;52.074;4.748;2022-09-09T13:19:02;16.90;99.90
30234;DHT22;17046;52.074;4.748;2022-09-09T13:21:38;17.00;99.90
30234;DHT22;17046;52.074;4.748;2022-09-09T13:24:21;17.10;99.90
30234;DHT22;17046;52.074;4.748;2022-09-09T13:26:59;17.20;99.90
30234;DHT22;17046;52.074;4.748;2022-09-09T13:29:27;17.30;99.90
30234;DHT22;17046;52.074;4.748;2022-09-09T13:31:53;17.40;99.90
30234;DHT22;17046;52.074;4.748;2022-09-09T13:34:31;17.30;99.90
30234;DHT22;17046;52.074;4.748;2022-09-09T13:37:02;17.30;99.90
30234;DHT22;17046;52.074;4.748;2022-09-09T13:39:29;17.40;99.90
30234;DHT22;17046;52.074;4.748;2022-09-09T13:41:55;17.30;99.90
30234;DHT22;17046;52.074;4.748;2022-09-09T13:44:24;17.40;99.90
30234;DHT22;17046;52.074;4.748;2022-09-09T13:47:20;17.40;99.90
30234;DHT22;17046;52.074;4.748;2022-09-09T13:49:46;17.70;99.90
30234;DHT22;17046;52.074;4.748;2022-09-09T13:52:14;17.90;99.90
30234;DHT22;17046;52.074;4.748;2022-09-09T13:54:41;18.10;99.90
30234;DHT22;17046;52.074;4.748;2022-09-09T13:57:24;18.30;99.90
30234;DHT22;17046;52.074;4.748;2022-09-09T13:59:52;18.50;99.90
30234;DHT22;17046;52.074;4.748;2022-09-09T14:02:18;18.80;99.90
30234;DHT22;17046;52.074;4.748;2022-09-09T14:04:44;18.80;99.90
30234;DHT22;17046;52.074;4.748;2022-09-09T14:07:14;18.80;99.90
30234;DHT22;17046;52.074;4.748;2022-09-09T14:09:40;18.90;99.90
30234;DHT22;17046;52.074;4.748;2022-09-09T14:12:13;18.70;99.90
30234;DHT22;17046;52.074;4.748;2022-09-09T14:14:40;18.70;99.90
30234;DHT22;17046;52.074;4.748;2022-09-09T14:17:07;18.50;99.90
30234;DHT22;17046;52.074;4.748;2022-09-09T14:19:33;18.20;99.90
30234;DHT22;17046;52.074;4.748;2022-09-09T14:21:59;17.90;99.90
30234;DHT22;17046;52.074;4.748;2022-09-09T14:24:24;17.60;99.90
30234;DHT22;17046;52.074;4.748;2022-09-09T14:26:50;17.40;99.90
30234;DHT22;17046;52.074;4.748;2022-09-09T14:29:16;17.20;99.90
30234;DHT22;17046;52.074;4.748;2022-09-09T14:31:41;17.10;99.90
30234;DHT22;17046;52.074;4.748;2022-09-09T14:34:07;16.90;99.90
30234;DHT22;17046;52.074;4.748;2022-09-09T14:36:33;16.90;99.90
30234;DHT22;17046;52.074;4.748;2022-09-09T14:38:58;16.80;99.90
30234;DHT22;17046;52.074;4.748;2022-09-09T14:41:24;16.80;99.90
30234;DHT22;17046;52.074;4.748;2022-09-09T14:43:50;16.70;99.90
30234;DHT22;17046;52.074;4.748;2022-09-09T14:46:18;16.70;99.90
30234;DHT22;17046;52.074;4.748;2022-09-09T14:48:44;16.70;99.90
30234;DHT22;17046;52.074;4.748;2022-09-09T14:51:31;16.70;99.90
30234;DHT22;17046;52.074;4.748;2022-09-09T14:53:59;16.80;99.90
30234;DHT22;17046;52.074;4.748;2022-09-09T14:56:27;16.90;99.90
30234;DHT22;17046;52.074;4.748;2022-09-09T14:58:54;17.10;99.90
30234;DHT22;17046;52.074;4.748;2022-09-09T15:01:21;17.20;99.90
30234;DHT22;17046;52.074;4.748;2022-09-09T15:03:55;17.40;99.90
30234;DHT22;17046;52.074;4.748;2022-09-09T15:06:22;17.50;99.90
30234;DHT22;17046;52.074;4.748;2022-09-09T15:08:51;17.60;99.90
30234;DHT22;17046;52.074;4.748;2022-09-09T15:11:17;17.80;99.90
30234;DHT22;17046;52.074;4.748;2022-09-09T15:13:43;18.00;99.90
30234;DHT22;17046;52.074;4.748;2022-09-09T15:16:17;18.30;99.90
30234;DHT22;17046;52.074;4.748;2022-09-09T15:18:44;18.60;99.90
30234;DHT22;17046;52.074;4.748;2022-09-09T15:21:15;18.70;99.90
30234;DHT22;17046;52.074;4.748;2022-09-09T15:23:41;19.00;99.90
30234;DHT22;17046;52.074;4.748;2022-09-09T15:26:07;19.10;99.90
30234;DHT22;17046;52.074;4.748;2022-09-09T15:28:33;19.40;99.90
30234;DHT22;17046;52.074;4.748;2022-09-09T15:31:14;19.70;99.90
30234;DHT22;17046;52.074;4.748;2022-09-09T15:33:40;19.90;92.30
30234;DHT22;17046;52.074;4.748;2022-09-09T15:36:23;20.00;56.40
30234;DHT22;17046;52.074;4.748;2022-09-09T15:38:50;19.90;38.60
30234;DHT22;17046;52.074;4.748;2022-09-09T15:41:17;19.80;74.30
30234;DHT22;17046;52.074;4.748;2022-09-09T15:43:53;19.80;62.90
30234;DHT22;17046;52.074;4.748;2022-09-09T15:46:31;19.70;57.70
30234;DHT22;17046;52.074;4.748;2022-09-09T15:49:17;19.50;50.10
30234;DHT22;17046;52.074;4.748;2022-09-09T15:51:45;19.40;72.80
30234;DHT22;17046;52.074;4.748;2022-09-09T15:54:17;19.40;49.80
30234;DHT22;17046;52.074;4.748;2022-09-09T15:56:44;19.30;37.40
30234;DHT22;17046;52.074;4.748;2022-09-09T15:59:10;19.10;48.10
30234;DHT22;17046;52.074;4.748;2022-09-09T16:01:37;19.00;33.40
30234;DHT22;17046;52.074;4.748;2022-09-09T16:04:05;18.90;50.90
30234;DHT22;17046;52.074;4.748;2022-09-09T16:06:30;18.80;42.80
30234;DHT22;17046;52.074;4.748;2022-09-09T16:08:57;18.60;63.80
30234;DHT22;17046;52.074;4.748;2022-09-09T16:11:31;18.60;89.30
30234;DHT22;17046;52.074;4.748;2022-09-09T16:13:58;18.50;82.90
30234;DHT22;17046;52.074;4.748;2022-09-09T16:16:26;18.30;81.10
30234;DHT22;17046;52.074;4.748;2022-09-09T16:18:55;18.20;94.10
30234;DHT22;17046;52.074;4.748;2022-09-09T16:21:26;18.10;99.90
30234;DHT22;17046;52.074;4.748;2022-09-09T16:23:55;18.10;99.90
30234;DHT22;17046;52.074;4.748;2022-09-09T16:26:22;18.10;99.90
30234;DHT22;17046;52.074;4.748;2022-09-09T16:28:48;18.10;99.90
30234;DHT22;17046;52.074;4.748;2022-09-09T16:31:18;18.20;99.90
30234;DHT22;17046;52.074;4.748;2022-09-09T16:33:44;18.30;99.90
30234;DHT22;17046;52.074;4.748;2022-09-09T16:36:12;18.40;99.90
30234;DHT22;17046;52.074;4.748;2022-09-09T16:38:39;18.50;99.90
30234;DHT22;17046;52.074;4.748;2022-09-09T16:41:05;18.60;99.90
30234;DHT22;17046;52.074;4.748;2022-09-09T16:43:32;18.50;99.90
30234;DHT22;17046;52.074;4.748;2022-09-09T16:45:58;18.40;99.90
30234;DHT22;17046;52.074;4.748;2022-09-09T16:48:34;18.30;99.90
30234;DHT22;17046;52.074;4.748;2022-09-09T16:51:05;18.30;99.90
30234;DHT22;17046;52.074;4.748;2022-09-09T16:53:32;18.20;99.90
30234;DHT22;17046;52.074;4.748;2022-09-09T16:56:04;18.20;99.90
30234;DHT22;17046;52.074;4.748;2022-09-09T16:58:29;18.20;99.90
30234;DHT22;17046;52.074;4.748;2022-09-09T17:00:59;18.30;99.90
30234;DHT22;17046;52.074;4.748;2022-09-09T17:03:25;18.30;99.90
30234;DHT22;17046;52.074;4.748;2022-09-09T17:05:51;18.20;99.90
30234;DHT22;17046;52.074;4.748;2022-09-09T17:08:16;18.20;99.90
30234;DHT22;17046;52.074;4.748;2022-09-09T17:10:42;18.20;99.90
30234;DHT22;17046;52.074;4.748;2022-09-09T17:13:08;18.20;99.90
30234;DHT22;17046;52.074;4.748;2022-09-09T17:15:38;18.20;99.90
30234;DHT22;17046;52.074;4.748;2022-09-09T17:18:05;18.10;99.90
30234;DHT22;17046;52.074;4.748;2022-09-09T17:20:34;18.00;99.90
30234;DHT22;17046;52.074;4.748;2022-09-09T17:23:00;17.90;99.90
30234;DHT22;17046;52.074;4.748;2022-09-09T17:25:25;17.80;99.90
30234;DHT22;17046;52.074;4.748;2022-09-09T17:27:51;17.70;99.90
30234;DHT22;17046;52.074;4.748;2022-09-09T17:30:16;17.60;99.90
30234;DHT22;17046;52.074;4.748;2022-09-09T17:32:42;17.60;99.90
30234;DHT22;17046;52.074;4.748;2022-09-09T17:35:08;17.50;99.90
30234;DHT22;17046;52.074;4.748;2022-09-09T17:37:33;17.50;99.90
30234;DHT22;17046;52.074;4.748;2022-09-09T17:39:59;17.50;99.90
30234;DHT22;17046;52.074;4.748;2022-09-09T17:42:25;17.50;99.90
30234;DHT22;17046;52.074;4.748;2022-09-09T17:44:51;17.40;99.90
30234;DHT22;17046;52.074;4.748;2022-09-09T17:47:16;17.40;99.90
30234;DHT22;17046;52.074;4.748;2022-09-09T17:49:42;17.30;99.90